createdAt,value
2022-10-20T00:01:19.005Z,3.17
2022-10-20T00:04:41.853Z,5.18
2022-10-20T00:08:04.815Z,3.63
2022-10-20T00:11:30.286Z,5.38
2022-10-20T00:14:53.337Z,7.43
2022-10-20T00:18:16.217Z,9.05
2022-10-20T00:21:39.144Z,4.82
2022-10-20T00:25:02.003Z,4.38
2022-10-20T00:28:26.309Z,6.60
2022-10-20T00:31:49.301Z,4.05
2022-10-20T00:35:12.277Z,4.40
2022-10-20T00:38:36.629Z,5.72
2022-10-20T00:42:04.061Z,4.32
2022-10-20T00:45:28.365Z,4.07
2022-10-20T00:48:54.705Z,4.78
2022-10-20T00:52:21.302Z,8.50
2022-10-20T00:55:47.292Z,5.18
2022-10-20T00:59:11.833Z,3.45
2022-10-20T01:02:36.249Z,5.82
2022-10-20T01:05:59.192Z,4.93
2022-10-20T01:09:22.436Z,2.47
2022-10-20T01:12:53.393Z,3.20
2022-10-20T01:16:24.488Z,4.47
2022-10-20T01:20:21.849Z,3.28
2022-10-20T01:24:11.095Z,3.45
2022-10-20T01:27:38.395Z,4.40
2022-10-20T01:31:06.568Z,4.60
2022-10-20T01:34:33.212Z,2.72
2022-10-20T01:38:07.435Z,3.42
2022-10-20T01:41:34.727Z,3.78
2022-10-20T01:45:03.649Z,2.90
2022-10-20T01:48:29.821Z,3.85
2022-10-20T01:51:53.590Z,2.30
2022-10-20T01:55:19.918Z,3.05
2022-10-20T01:59:08.920Z,4.30
2022-10-20T02:03:03.536Z,4.13
2022-10-20T02:06:40.429Z,4.97
2022-10-20T02:10:10.495Z,6.43
2022-10-20T02:13:36.101Z,2.45
2022-10-20T02:17:00.957Z,6.47
2022-10-20T02:20:25.815Z,2.53
2022-10-20T02:23:51.675Z,4.28
2022-10-20T02:27:17.798Z,3.50
2022-10-20T02:30:42.125Z,3.47
2022-10-20T02:34:05.601Z,6.55
2022-10-20T02:37:29.802Z,4.00
2022-10-20T02:40:53.069Z,7.35
2022-10-20T02:44:15.973Z,4.25
2022-10-20T02:47:39.265Z,4.25
2022-10-20T02:51:02.465Z,4.50
2022-10-20T02:54:28.546Z,4.70
2022-10-20T02:57:53.825Z,6.85
2022-10-20T03:01:16.925Z,3.80
2022-10-20T03:04:39.874Z,6.47
2022-10-20T03:08:02.734Z,4.22
2022-10-20T03:11:26.979Z,2.95
2022-10-20T03:14:49.973Z,3.05
2022-10-20T03:18:12.837Z,5.38
2022-10-20T03:21:35.726Z,4.22
2022-10-20T03:24:58.619Z,2.58
2022-10-20T03:28:22.809Z,2.95
2022-10-20T03:31:46.005Z,4.75
2022-10-20T03:35:09.642Z,3.53
2022-10-20T03:38:32.845Z,3.20
2022-10-20T03:41:57.335Z,2.20
2022-10-20T03:45:21.558Z,7.45
2022-10-20T03:48:44.469Z,6.45
2022-10-20T03:52:07.586Z,4.28
2022-10-20T03:55:30.484Z,5.13
2022-10-20T03:58:53.399Z,3.38
2022-10-20T04:02:30.744Z,5.43
2022-10-20T04:05:53.670Z,2.55
2022-10-20T04:09:16.583Z,6.78
2022-10-20T04:12:39.684Z,8.43
2022-10-20T04:16:02.708Z,3.25
2022-10-20T04:19:26.992Z,7.53
2022-10-20T04:22:49.901Z,8.75
2022-10-20T04:26:15.116Z,7.38
2022-10-20T04:29:38.098Z,8.45
2022-10-20T04:33:01.197Z,6.25
2022-10-20T04:36:25.473Z,5.85
2022-10-20T04:39:50.937Z,6.60
2022-10-20T04:43:13.811Z,6.28
2022-10-20T04:46:36.738Z,8.07
2022-10-20T04:49:59.589Z,4.88
2022-10-20T04:53:23.830Z,14.43
2022-10-20T04:56:46.757Z,12.20
2022-10-20T05:00:10.656Z,16.35
2022-10-20T05:03:33.589Z,20.48
2022-10-20T05:06:56.496Z,20.40
2022-10-20T05:10:20.846Z,13.93
2022-10-20T05:13:44.180Z,18.70
2022-10-20T05:17:09.313Z,15.93
2022-10-20T05:20:40.942Z,10.40
2022-10-20T05:24:09.137Z,10.85
2022-10-20T05:27:33.377Z,13.63
2022-10-20T05:30:59.153Z,15.00
2022-10-20T05:34:25.270Z,10.60
2022-10-20T05:37:48.264Z,13.40
2022-10-20T05:41:13.051Z,11.82
2022-10-20T05:44:37.340Z,10.65
2022-10-20T05:48:00.237Z,14.98
2022-10-20T05:51:25.972Z,10.73
2022-10-20T05:54:48.861Z,6.85
2022-10-20T05:58:11.774Z,7.85
2022-10-20T06:01:47.461Z,9.98
2022-10-20T06:05:10.464Z,7.70
2022-10-20T06:08:34.777Z,10.55
2022-10-20T06:11:57.815Z,20.67
2022-10-20T06:15:20.730Z,27.58
2022-10-20T06:18:45.156Z,30.10
2022-10-20T06:22:08.113Z,29.38
2022-10-20T06:25:31.000Z,19.33
2022-10-20T06:28:58.712Z,16.73
2022-10-20T06:32:25.748Z,21.33
2022-10-20T06:35:50.107Z,17.33
2022-10-20T06:39:15.804Z,15.27
2022-10-20T06:42:39.014Z,18.55
2022-10-20T06:46:04.591Z,15.82
2022-10-20T06:49:27.484Z,15.05
2022-10-20T06:52:51.682Z,17.38
2022-10-20T06:56:16.646Z,13.20
2022-10-20T06:59:39.510Z,14.05
2022-10-20T07:03:02.422Z,14.38
2022-10-20T07:06:28.885Z,16.08
2022-10-20T07:09:53.113Z,11.05
2022-10-20T07:13:15.973Z,11.15
2022-10-20T07:16:38.870Z,12.63
2022-10-20T07:20:01.784Z,10.85
2022-10-20T07:23:24.862Z,8.32
2022-10-20T07:26:49.130Z,17.70
2022-10-20T07:30:12.420Z,14.43
2022-10-20T07:33:35.528Z,17.98
2022-10-20T07:36:59.106Z,13.70
2022-10-20T07:40:22.097Z,12.70
2022-10-20T07:43:46.377Z,6.38
2022-10-20T07:47:09.359Z,12.30
2022-10-20T07:50:32.234Z,17.25
2022-10-20T07:53:59.771Z,11.77
2022-10-20T07:57:23.569Z,12.35
2022-10-20T08:00:47.757Z,8.43
2022-10-20T08:04:10.715Z,10.40
2022-10-20T08:07:33.661Z,10.00
2022-10-20T08:10:58.010Z,9.45
2022-10-20T08:14:20.950Z,11.50
2022-10-20T08:17:45.201Z,8.77
2022-10-20T08:21:09.828Z,12.23
2022-10-20T08:24:32.723Z,9.88
2022-10-20T08:27:55.638Z,13.00
2022-10-20T08:31:18.814Z,13.27
2022-10-20T08:34:43.041Z,8.95
2022-10-20T08:38:06.890Z,10.20
2022-10-20T08:41:43.502Z,12.60
2022-10-20T08:45:19.158Z,9.30
2022-10-20T08:48:42.986Z,10.48
2022-10-20T08:52:13.831Z,10.40
2022-10-20T08:55:37.245Z,11.52
2022-10-20T08:59:00.276Z,14.65
2022-10-20T09:02:23.893Z,7.45
2022-10-20T09:05:50.790Z,10.90
2022-10-20T09:09:18.866Z,13.85
2022-10-20T09:12:44.243Z,14.38
2022-10-20T09:16:18.303Z,9.88
2022-10-20T09:19:56.382Z,13.73
2022-10-20T09:23:39.893Z,10.18
2022-10-20T09:27:22.126Z,9.65
2022-10-20T09:30:45.673Z,9.13
2022-10-20T09:34:26.001Z,11.10
2022-10-20T09:38:02.343Z,9.25
2022-10-20T09:41:30.413Z,13.60
2022-10-20T09:44:58.437Z,15.40
2022-10-20T09:48:26.881Z,11.45
2022-10-20T09:51:50.233Z,11.00
2022-10-20T09:55:29.825Z,14.85
2022-10-20T09:58:52.887Z,17.55
2022-10-20T10:02:32.389Z,10.70
2022-10-20T10:05:57.006Z,14.20
2022-10-20T10:09:28.540Z,5.47
2022-10-20T10:12:53.508Z,14.25
2022-10-20T10:16:20.298Z,9.77
2022-10-20T10:19:52.528Z,8.00
2022-10-20T10:23:21.929Z,10.40
2022-10-20T10:26:47.519Z,13.20
2022-10-20T10:30:28.418Z,12.32
2022-10-20T10:33:55.701Z,7.18
2022-10-20T10:40:51.814Z,12.70
2022-10-20T10:44:23.463Z,11.68
2022-10-20T10:48:16.184Z,17.90
2022-10-20T10:51:52.777Z,8.75
2022-10-20T10:55:48.206Z,11.52
2022-10-20T10:59:11.501Z,8.55
2022-10-20T11:03:01.922Z,13.73
2022-10-20T11:06:37.240Z,9.27
2022-10-20T11:10:06.504Z,12.70
2022-10-20T11:13:36.845Z,13.90
2022-10-20T11:17:09.469Z,10.43
2022-10-20T11:20:39.718Z,12.20
2022-10-20T11:24:38.542Z,12.20
2022-10-20T11:28:01.790Z,17.58
2022-10-20T11:31:30.965Z,8.70
2022-10-20T11:35:03.286Z,9.75
2022-10-20T11:38:32.145Z,7.78
2022-10-20T11:42:01.950Z,16.48
2022-10-20T11:45:39.125Z,7.18
2022-10-20T11:49:04.286Z,6.28
2022-10-20T11:53:02.721Z,7.15
2022-10-20T11:56:35.414Z,11.45
2022-10-20T12:04:10.225Z,11.60
2022-10-20T12:08:00.814Z,13.55
2022-10-20T12:11:40.085Z,12.98
2022-10-20T12:15:19.788Z,13.38
2022-10-20T12:19:17.841Z,8.38
2022-10-20T12:22:42.652Z,8.55
2022-10-20T12:26:25.662Z,8.75
2022-10-20T12:29:54.726Z,14.63
2022-10-20T12:33:19.688Z,12.25
2022-10-20T12:36:44.214Z,13.30
2022-10-20T12:40:25.936Z,14.82
2022-10-20T12:43:54.217Z,10.90
2022-10-20T12:47:22.543Z,7.97
2022-10-20T12:50:49.385Z,6.60
2022-10-20T12:54:23.943Z,18.20
2022-10-20T12:57:47.857Z,9.02
2022-10-20T13:01:13.217Z,17.80
2022-10-20T13:04:56.170Z,10.13
2022-10-20T13:08:30.864Z,15.57
2022-10-20T13:12:06.187Z,5.68
2022-10-20T13:15:32.298Z,7.32
2022-10-20T13:18:55.620Z,9.25
2022-10-20T13:22:43.100Z,13.57
2022-10-20T13:26:16.994Z,7.53
2022-10-20T13:29:43.718Z,10.45
2022-10-20T13:33:38.783Z,10.13
2022-10-20T13:37:07.216Z,8.75
2022-10-20T13:40:42.705Z,12.95
2022-10-20T13:44:16.435Z,10.45
2022-10-20T13:47:49.169Z,7.57
2022-10-20T13:51:19.794Z,5.35
2022-10-20T13:54:47.863Z,16.48
2022-10-20T13:58:20.955Z,15.18
2022-10-20T14:01:48.682Z,12.73
2022-10-20T14:05:14.791Z,16.58
2022-10-20T14:08:44.143Z,8.65
2022-10-20T14:12:12.421Z,11.98
2022-10-20T14:15:36.947Z,12.55
2022-10-20T14:19:04.832Z,14.40
2022-10-20T14:22:29.125Z,14.35
2022-10-20T14:25:53.634Z,11.73
2022-10-20T14:29:19.239Z,13.05
2022-10-20T14:32:43.864Z,11.15
2022-10-20T14:36:07.200Z,10.25
2022-10-20T14:39:36.171Z,11.82
2022-10-20T14:43:02.856Z,12.98
2022-10-20T14:46:30.243Z,16.48
2022-10-20T14:49:55.626Z,9.00
2022-10-20T14:53:32.170Z,11.77
2022-10-20T14:56:58.333Z,8.13
2022-10-20T15:00:27.773Z,8.35
2022-10-20T15:07:34.864Z,6.80
2022-10-20T15:10:59.069Z,9.02
2022-10-20T15:14:23.541Z,7.40
2022-10-20T15:17:48.036Z,15.70
2022-10-20T15:21:11.847Z,4.63
2022-10-20T15:24:34.758Z,6.65
2022-10-20T15:27:58.472Z,6.35
2022-10-20T15:31:24.791Z,10.68
2022-10-20T15:34:47.752Z,8.27
2022-10-20T15:38:10.727Z,7.95
2022-10-20T15:41:35.956Z,11.70
2022-10-20T15:44:58.826Z,12.77
2022-10-20T15:48:25.754Z,9.27
2022-10-20T15:51:50.351Z,5.88
2022-10-20T15:55:22.552Z,8.25
2022-10-20T15:58:45.687Z,8.30
2022-10-20T16:02:13.053Z,7.40
2022-10-20T16:05:37.297Z,20.40
2022-10-20T16:09:00.279Z,16.02
2022-10-20T16:12:23.237Z,11.70
2022-10-20T16:15:46.254Z,11.27
2022-10-20T16:19:09.336Z,5.57
2022-10-20T16:22:33.981Z,10.65
2022-10-20T16:25:57.000Z,11.07
2022-10-20T16:29:19.862Z,7.18
2022-10-20T16:32:42.781Z,15.63
2022-10-20T16:39:37.040Z,10.57
2022-10-20T16:43:00.595Z,18.17
2022-10-20T16:46:23.812Z,13.60
2022-10-20T16:49:46.750Z,7.72
2022-10-20T16:53:09.733Z,11.70
2022-10-20T16:56:34.233Z,12.27
2022-10-20T17:00:00.496Z,13.43
2022-10-20T17:03:23.370Z,15.43
2022-10-20T17:06:46.241Z,10.60
2022-10-20T17:10:09.782Z,9.85
2022-10-20T17:13:34.577Z,9.30
2022-10-20T17:16:59.604Z,12.75
2022-10-20T17:20:22.467Z,9.68
2022-10-20T17:23:46.368Z,8.70
2022-10-20T17:27:10.866Z,16.73
2022-10-20T17:30:35.508Z,12.52
2022-10-20T17:33:59.212Z,16.08
2022-10-20T17:37:22.160Z,12.52
2022-10-20T17:40:45.012Z,14.23
2022-10-20T17:44:09.302Z,16.02
2022-10-20T17:47:33.559Z,17.98
2022-10-20T17:51:01.157Z,10.07
2022-10-20T17:54:24.217Z,14.60
2022-10-20T17:57:47.149Z,11.13
2022-10-20T18:01:12.053Z,20.77
2022-10-20T18:04:36.389Z,9.00
2022-10-20T18:07:59.308Z,10.18
2022-10-20T18:11:24.094Z,10.90
2022-10-20T18:14:47.327Z,12.52
2022-10-20T18:18:10.270Z,18.95
2022-10-20T18:21:34.704Z,14.25
2022-10-20T18:24:57.597Z,20.60
2022-10-20T18:28:20.552Z,25.25
2022-10-20T18:31:45.058Z,14.68
2022-10-20T18:35:08.595Z,17.75
2022-10-20T18:38:35.320Z,16.77
2022-10-20T18:41:58.350Z,19.45
2022-10-20T18:45:23.814Z,16.95
2022-10-20T18:48:49.440Z,19.05
2022-10-20T18:52:12.408Z,17.92
2022-10-20T18:55:36.644Z,18.02
2022-10-20T18:59:02.318Z,30.45
2022-10-20T19:02:26.753Z,23.80
2022-10-20T19:05:49.641Z,31.35
2022-10-20T19:09:15.549Z,25.27
2022-10-20T19:12:39.982Z,28.05
2022-10-20T19:16:08.484Z,23.38
2022-10-20T19:19:31.379Z,28.40
2022-10-20T19:22:54.318Z,25.27
2022-10-20T19:26:19.252Z,17.58
2022-10-20T19:29:43.558Z,21.92
2022-10-20T19:33:06.530Z,23.60
2022-10-20T19:36:30.128Z,30.25
2022-10-20T19:39:53.053Z,27.70
2022-10-20T19:43:16.050Z,25.45
2022-10-20T19:46:41.008Z,20.27
2022-10-20T19:50:04.282Z,18.60
2022-10-20T19:53:27.659Z,26.20
2022-10-20T19:56:50.681Z,17.80
2022-10-20T20:00:14.251Z,20.50
2022-10-20T20:03:38.613Z,19.75
2022-10-20T20:07:02.516Z,19.42
2022-10-20T20:10:25.633Z,16.30
2022-10-20T20:13:48.513Z,24.23
2022-10-20T20:17:11.588Z,17.92
2022-10-20T20:20:36.022Z,18.80
2022-10-20T20:24:01.329Z,13.93
2022-10-20T20:27:24.514Z,15.65
2022-10-20T20:30:59.805Z,19.50
2022-10-20T20:34:22.873Z,20.42
2022-10-20T20:37:47.114Z,20.98
2022-10-20T20:41:13.010Z,21.95
2022-10-20T20:44:35.961Z,23.50
2022-10-20T20:47:58.869Z,18.38
2022-10-20T20:51:22.036Z,15.50
2022-10-20T20:54:46.279Z,14.15
2022-10-20T20:58:09.161Z,21.67
2022-10-20T21:01:32.524Z,18.88
2022-10-20T21:04:55.542Z,18.75
2022-10-20T21:08:18.458Z,16.60
2022-10-20T21:11:42.900Z,11.68
2022-10-20T21:15:06.822Z,16.55
2022-10-20T21:18:29.709Z,13.52
2022-10-20T21:21:57.257Z,14.82
2022-10-20T21:25:20.190Z,14.38
2022-10-20T21:28:44.845Z,15.45
2022-10-20T21:32:07.742Z,18.35
2022-10-20T21:35:31.398Z,19.83
2022-10-20T21:38:54.509Z,17.73
2022-10-20T21:42:17.396Z,17.58
2022-10-20T21:45:41.593Z,16.45
2022-10-20T21:49:06.187Z,21.17
2022-10-20T21:52:29.110Z,14.18
2022-10-20T21:55:52.029Z,13.05
2022-10-20T21:59:18.873Z,13.77
2022-10-20T22:02:43.154Z,27.17
2022-10-20T22:06:06.386Z,20.15
2022-10-20T22:09:29.574Z,16.58
2022-10-20T22:12:52.480Z,15.43
2022-10-20T22:16:17.713Z,15.07
2022-10-20T22:19:42.125Z,13.82
2022-10-20T22:23:06.412Z,14.05
2022-10-20T22:26:30.849Z,12.43
2022-10-20T22:29:56.670Z,14.57
2022-10-20T22:33:20.511Z,16.30
2022-10-20T22:36:45.147Z,12.43
2022-10-20T22:40:09.600Z,14.98
2022-10-20T22:43:32.798Z,20.88
2022-10-20T22:46:55.725Z,17.48
2022-10-20T22:50:18.792Z,10.10
2022-10-20T22:53:43.138Z,14.98
2022-10-20T22:57:06.038Z,10.60
2022-10-20T23:00:28.986Z,15.45
2022-10-20T23:03:52.125Z,10.30
2022-10-20T23:07:15.037Z,10.18
2022-10-20T23:10:39.321Z,14.32
2022-10-20T23:14:02.241Z,10.48
2022-10-20T23:17:25.313Z,10.15
2022-10-20T23:20:48.246Z,15.43
2022-10-20T23:24:11.138Z,12.48
2022-10-20T23:27:36.293Z,9.43
2022-10-20T23:31:07.140Z,12.30
2022-10-20T23:34:30.073Z,12.65
2022-10-20T23:37:53.013Z,12.32
2022-10-20T23:41:16.137Z,9.57
2022-10-20T23:44:40.434Z,11.13
2022-10-20T23:48:03.491Z,6.00
2022-10-20T23:51:26.937Z,7.72
2022-10-20T23:54:49.853Z,10.40
2022-10-20T23:58:12.914Z,10.38
